sensor_id;sensor_type;location;lat;lon;timestamp;temperature;humidity
31747;DHT22;18319;48.974;8.462;2023-08-07T00:02:01;12.40;99.90
31747;DHT22;18319;48.974;8.462;2023-08-07T00:04:28;12.40;99.90
31747;DHT22;18319;48.974;8.462;2023-08-07T00:06:55;12.50;99.90
31747;DHT22;18319;48.974;8.462;2023-08-07T00:09:23;12.50;99.90
31747;DHT22;18319;48.974;8.462;2023-08-07T00:11:50;12.40;99.90
31747;DHT22;18319;48.974;8.462;2023-08-07T00:14:17;12.40;99.90
31747;DHT22;18319;48.974;8.462;2023-08-07T00:16:44;12.40;99.90
31747;DHT22;18319;48.974;8.462;2023-08-07T00:19:11;12.50;99.90
31747;DHT22;18319;48.974;8.462;2023-08-07T00:21:37;12.40;99.90
31747;DHT22;18319;48.974;8.462;2023-08-07T00:24:04;12.30;99.90
31747;DHT22;18319;48.974;8.462;2023-08-07T00:26:33;12.40;99.90
31747;DHT22;18319;48.974;8.462;2023-08-07T00:28:59;12.30;99.90
31747;DHT22;18319;48.974;8.462;2023-08-07T00:31:26;12.30;99.90
31747;DHT22;18319;48.974;8.462;2023-08-07T00:33:56;12.40;99.90
31747;DHT22;18319;48.974;8.462;2023-08-07T00:36:23;12.30;99.90
31747;DHT22;18319;48.974;8.462;2023-08-07T00:38:51;12.40;99.90
31747;DHT22;18319;48.974;8.462;2023-08-07T00:41:17;12.40;99.90
31747;DHT22;18319;48.974;8.462;2023-08-07T00:43:45;12.40;99.90
31747;DHT22;18319;48.974;8.462;2023-08-07T00:46:12;12.40;99.90
31747;DHT22;18319;48.974;8.462;2023-08-07T00:48:39;12.40;99.90
31747;DHT22;18319;48.974;8.462;2023-08-07T00:51:08;12.40;99.90
31747;DHT22;18319;48.974;8.462;2023-08-07T00:53:38;12.40;99.90
31747;DHT22;18319;48.974;8.462;2023-08-07T00:56:05;12.40;99.90
31747;DHT22;18319;48.974;8.462;2023-08-07T00:58:32;12.40;99.90
31747;DHT22;18319;48.974;8.462;2023-08-07T01:01:01;12.40;99.90
31747;DHT22;18319;48.974;8.462;2023-08-07T01:03:28;12.40;99.90
31747;DHT22;18319;48.974;8.462;2023-08-07T01:05:54;12.40;99.90
31747;DHT22;18319;48.974;8.462;2023-08-07T01:08:23;12.40;99.90
31747;DHT22;18319;48.974;8.462;2023-08-07T01:11:13;12.30;99.90
31747;DHT22;18319;48.974;8.462;2023-08-07T01:13:48;12.30;99.90
31747;DHT22;18319;48.974;8.462;2023-08-07T01:16:20;12.30;99.90
31747;DHT22;18319;48.974;8.462;2023-08-07T01:18:48;12.30;99.90
31747;DHT22;18319;48.974;8.462;2023-08-07T01:21:17;12.30;99.90
31747;DHT22;18319;48.974;8.462;2023-08-07T01:23:46;12.30;99.90
31747;DHT22;18319;48.974;8.462;2023-08-07T01:26:13;12.20;99.90
31747;DHT22;18319;48.974;8.462;2023-08-07T01:28:44;12.20;99.90
31747;DHT22;18319;48.974;8.462;2023-08-07T01:31:14;12.20;99.90
31747;DHT22;18319;48.974;8.462;2023-08-07T01:33:49;12.20;99.90
31747;DHT22;18319;48.974;8.462;2023-08-07T01:36:17;12.30;99.90
31747;DHT22;18319;48.974;8.462;2023-08-07T01:38:46;12.30;99.90
31747;DHT22;18319;48.974;8.462;2023-08-07T01:41:15;12.20;99.90
31747;DHT22;18319;48.974;8.462;2023-08-07T01:43:42;12.30;99.90
31747;DHT22;18319;48.974;8.462;2023-08-07T01:46:11;12.30;99.90
31747;DHT22;18319;48.974;8.462;2023-08-07T01:48:38;12.30;99.90
31747;DHT22;18319;48.974;8.462;2023-08-07T01:51:05;12.30;99.90
31747;DHT22;18319;48.974;8.462;2023-08-07T01:53:32;12.20;99.90
31747;DHT22;18319;48.974;8.462;2023-08-07T01:56:00;12.20;99.90
31747;DHT22;18319;48.974;8.462;2023-08-07T01:58:28;12.10;99.90
31747;DHT22;18319;48.974;8.462;2023-08-07T02:00:55;12.00;99.90
31747;DHT22;18319;48.974;8.462;2023-08-07T02:03:22;12.00;99.90
31747;DHT22;18319;48.974;8.462;2023-08-07T02:05:49;12.00;99.90
31747;DHT22;18319;48.974;8.462;2023-08-07T02:08:16;11.80;99.90
31747;DHT22;18319;48.974;8.462;2023-08-07T02:10:43;11.80;99.90
31747;DHT22;18319;48.974;8.462;2023-08-07T02:13:14;11.70;99.90
31747;DHT22;18319;48.974;8.462;2023-08-07T02:15:40;11.60;99.90
31747;DHT22;18319;48.974;8.462;2023-08-07T02:18:07;11.70;99.90
31747;DHT22;18319;48.974;8.462;2023-08-07T02:20:34;11.70;99.90
31747;DHT22;18319;48.974;8.462;2023-08-07T02:23:01;11.70;99.90
31747;DHT22;18319;48.974;8.462;2023-08-07T02:25:27;11.50;99.90
31747;DHT22;18319;48.974;8.462;2023-08-07T02:27:54;11.50;99.90
31747;DHT22;18319;48.974;8.462;2023-08-07T02:30:22;11.50;99.90
31747;DHT22;18319;48.974;8.462;2023-08-07T02:32:49;11.50;99.90
31747;DHT22;18319;48.974;8.462;2023-08-07T02:35:15;11.50;99.90
31747;DHT22;18319;48.974;8.462;2023-08-07T02:37:42;11.40;99.90
31747;DHT22;18319;48.974;8.462;2023-08-07T02:40:10;11.50;99.90
31747;DHT22;18319;48.974;8.462;2023-08-07T02:42:40;11.40;99.90
31747;DHT22;18319;48.974;8.462;2023-08-07T02:45:08;11.40;99.90
31747;DHT22;18319;48.974;8.462;2023-08-07T02:47:36;11.50;99.90
31747;DHT22;18319;48.974;8.462;2023-08-07T02:50:03;11.50;99.90
31747;DHT22;18319;48.974;8.462;2023-08-07T02:52:30;11.40;99.90
31747;DHT22;18319;48.974;8.462;2023-08-07T02:54:57;11.50;99.90
31747;DHT22;18319;48.974;8.462;2023-08-07T02:57:23;11.50;99.90
31747;DHT22;18319;48.974;8.462;2023-08-07T02:59:51;11.50;99.90
31747;DHT22;18319;48.974;8.462;2023-08-07T03:02:18;11.40;99.90
31747;DHT22;18319;48.974;8.462;2023-08-07T03:04:46;11.40;99.90
31747;DHT22;18319;48.974;8.462;2023-08-07T03:07:12;11.40;99.90
31747;DHT22;18319;48.974;8.462;2023-08-07T03:09:39;11.40;99.90
31747;DHT22;18319;48.974;8.462;2023-08-07T03:12:07;11.40;99.90
31747;DHT22;18319;48.974;8.462;2023-08-07T03:14:33;11.40;99.90
31747;DHT22;18319;48.974;8.462;2023-08-07T03:17:00;11.40;99.90
31747;DHT22;18319;48.974;8.462;2023-08-07T03:19:27;11.40;99.90
31747;DHT22;18319;48.974;8.462;2023-08-07T03:21:55;11.30;99.90
31747;DHT22;18319;48.974;8.462;2023-08-07T03:24:22;11.40;99.90
31747;DHT22;18319;48.974;8.462;2023-08-07T03:26:48;11.30;99.90
31747;DHT22;18319;48.974;8.462;2023-08-07T03:29:15;11.30;99.90
31747;DHT22;18319;48.974;8.462;2023-08-07T03:31:42;11.30;99.90
31747;DHT22;18319;48.974;8.462;2023-08-07T03:34:09;11.30;99.90
31747;DHT22;18319;48.974;8.462;2023-08-07T03:36:35;11.40;99.90
31747;DHT22;18319;48.974;8.462;2023-08-07T03:39:03;11.40;99.90
31747;DHT22;18319;48.974;8.462;2023-08-07T03:41:30;11.30;99.90
31747;DHT22;18319;48.974;8.462;2023-08-07T03:43:57;11.40;99.90
31747;DHT22;18319;48.974;8.462;2023-08-07T03:46:23;11.40;99.90
31747;DHT22;18319;48.974;8.462;2023-08-07T03:48:50;11.40;99.90
31747;DHT22;18319;48.974;8.462;2023-08-07T03:51:17;11.50;99.90
31747;DHT22;18319;48.974;8.462;2023-08-07T03:53:44;11.50;99.90
31747;DHT22;18319;48.974;8.462;2023-08-07T03:56:12;11.60;99.90
31747;DHT22;18319;48.974;8.462;2023-08-07T03:58:39;11.60;99.90
31747;DHT22;18319;48.974;8.462;2023-08-07T04:01:05;11.70;99.90
31747;DHT22;18319;48.974;8.462;2023-08-07T04:03:32;11.80;99.90
31747;DHT22;18319;48.974;8.462;2023-08-07T04:05:59;11.80;99.90
31747;DHT22;18319;48.974;8.462;2023-08-07T04:08:27;11.80;99.90
31747;DHT22;18319;48.974;8.462;2023-08-07T04:10:58;11.80;99.90
31747;DHT22;18319;48.974;8.462;2023-08-07T04:13:27;11.80;99.90
31747;DHT22;18319;48.974;8.462;2023-08-07T04:15:54;11.80;99.90
31747;DHT22;18319;48.974;8.462;2023-08-07T04:18:20;11.80;99.90
31747;DHT22;18319;48.974;8.462;2023-08-07T04:20:49;11.80;99.90
31747;DHT22;18319;48.974;8.462;2023-08-07T04:23:16;11.90;99.90
31747;DHT22;18319;48.974;8.462;2023-08-07T04:25:42;12.00;99.90
31747;DHT22;18319;48.974;8.462;2023-08-07T04:28:09;12.10;99.90
31747;DHT22;18319;48.974;8.462;2023-08-07T04:30:37;12.10;99.90
31747;DHT22;18319;48.974;8.462;2023-08-07T04:33:04;12.10;99.90
31747;DHT22;18319;48.974;8.462;2023-08-07T04:35:31;12.20;99.90
31747;DHT22;18319;48.974;8.462;2023-08-07T04:37:58;12.20;99.90
31747;DHT22;18319;48.974;8.462;2023-08-07T04:40:24;12.20;99.90
31747;DHT22;18319;48.974;8.462;2023-08-07T04:42:51;12.10;99.90
31747;DHT22;18319;48.974;8.462;2023-08-07T04:45:18;12.20;99.90
31747;DHT22;18319;48.974;8.462;2023-08-07T04:47:46;12.20;99.90
31747;DHT22;18319;48.974;8.462;2023-08-07T04:50:13;12.20;99.90
31747;DHT22;18319;48.974;8.462;2023-08-07T04:52:40;12.20;99.90
31747;DHT22;18319;48.974;8.462;2023-08-07T04:55:07;12.30;99.90
31747;DHT22;18319;48.974;8.462;2023-08-07T04:57:34;12.40;99.90
31747;DHT22;18319;48.974;8.462;2023-08-07T05:00:00;12.40;99.90
31747;DHT22;18319;48.974;8.462;2023-08-07T05:02:27;12.40;99.90
31747;DHT22;18319;48.974;8.462;2023-08-07T05:04:55;12.40;99.90
31747;DHT22;18319;48.974;8.462;2023-08-07T05:07:22;12.40;99.90
31747;DHT22;18319;48.974;8.462;2023-08-07T05:09:49;12.30;99.90
31747;DHT22;18319;48.974;8.462;2023-08-07T05:12:16;12.30;99.90
31747;DHT22;18319;48.974;8.462;2023-08-07T05:14:45;12.40;99.90
31747;DHT22;18319;48.974;8.462;2023-08-07T05:17:11;12.50;99.90
31747;DHT22;18319;48.974;8.462;2023-08-07T05:19:38;12.60;99.90
31747;DHT22;18319;48.974;8.462;2023-08-07T05:22:06;12.70;99.90
31747;DHT22;18319;48.974;8.462;2023-08-07T05:24:33;12.70;99.90
31747;DHT22;18319;48.974;8.462;2023-08-07T05:27:04;12.70;99.90
31747;DHT22;18319;48.974;8.462;2023-08-07T05:29:33;12.70;99.90
31747;DHT22;18319;48.974;8.462;2023-08-07T05:32:00;12.80;99.90
31747;DHT22;18319;48.974;8.462;2023-08-07T05:34:28;12.90;99.90
31747;DHT22;18319;48.974;8.462;2023-08-07T05:36:55;12.90;99.90
31747;DHT22;18319;48.974;8.462;2023-08-07T05:39:23;12.90;99.90
31747;DHT22;18319;48.974;8.462;2023-08-07T05:41:49;13.00;99.90
31747;DHT22;18319;48.974;8.462;2023-08-07T05:44:19;13.00;99.90
31747;DHT22;18319;48.974;8.462;2023-08-07T05:46:45;13.10;99.90
31747;DHT22;18319;48.974;8.462;2023-08-07T05:49:12;13.20;99.90
31747;DHT22;18319;48.974;8.462;2023-08-07T05:51:39;13.20;99.90
31747;DHT22;18319;48.974;8.462;2023-08-07T05:54:06;13.20;99.90
31747;DHT22;18319;48.974;8.462;2023-08-07T05:56:34;13.20;99.90
31747;DHT22;18319;48.974;8.462;2023-08-07T05:59:01;13.20;99.90
31747;DHT22;18319;48.974;8.462;2023-08-07T06:01:27;13.30;99.90
31747;DHT22;18319;48.974;8.462;2023-08-07T06:03:56;13.50;99.90
31747;DHT22;18319;48.974;8.462;2023-08-07T06:06:24;13.60;99.90
31747;DHT22;18319;48.974;8.462;2023-08-07T06:08:50;13.90;99.90
31747;DHT22;18319;48.974;8.462;2023-08-07T06:11:17;13.90;99.90
31747;DHT22;18319;48.974;8.462;2023-08-07T06:13:45;14.20;99.90
31747;DHT22;18319;48.974;8.462;2023-08-07T06:16:12;14.20;99.90
31747;DHT22;18319;48.974;8.462;2023-08-07T06:18:39;14.40;99.90
31747;DHT22;18319;48.974;8.462;2023-08-07T06:21:05;14.40;99.90
31747;DHT22;18319;48.974;8.462;2023-08-07T06:23:32;14.50;99.90
31747;DHT22;18319;48.974;8.462;2023-08-07T06:25:59;14.30;99.90
31747;DHT22;18319;48.974;8.462;2023-08-07T06:28:29;14.40;99.90
31747;DHT22;18319;48.974;8.462;2023-08-07T06:31:01;14.10;99.90
31747;DHT22;18319;48.974;8.462;2023-08-07T06:33:28;14.00;99.90
31747;DHT22;18319;48.974;8.462;2023-08-07T06:35:55;14.00;99.90
31747;DHT22;18319;48.974;8.462;2023-08-07T06:38:22;14.20;99.90
31747;DHT22;18319;48.974;8.462;2023-08-07T06:40:48;14.30;99.90
31747;DHT22;18319;48.974;8.462;2023-08-07T06:43:15;14.70;99.90
31747;DHT22;18319;48.974;8.462;2023-08-07T06:45:42;15.10;99.90
31747;DHT22;18319;48.974;8.462;2023-08-07T06:48:10;15.30;99.90
31747;DHT22;18319;48.974;8.462;2023-08-07T06:50:37;15.90;99.90
31747;DHT22;18319;48.974;8.462;2023-08-07T06:53:04;16.10;99.90
31747;DHT22;18319;48.974;8.462;2023-08-07T06:55:30;16.00;99.90
31747;DHT22;18319;48.974;8.462;2023-08-07T06:57:58;16.10;99.90
31747;DHT22;18319;48.974;8.462;2023-08-07T07:00:25;16.00;99.90
31747;DHT22;18319;48.974;8.462;2023-08-07T07:02:52;15.50;99.90
31747;DHT22;18319;48.974;8.462;2023-08-07T07:05:20;15.70;99.90
31747;DHT22;18319;48.974;8.462;2023-08-07T07:07:47;16.00;99.90
31747;DHT22;18319;48.974;8.462;2023-08-07T07:10:14;16.30;99.90
31747;DHT22;18319;48.974;8.462;2023-08-07T07:12:41;16.30;99.90
31747;DHT22;18319;48.974;8.462;2023-08-07T07:15:08;17.00;99.90
31747;DHT22;18319;48.974;8.462;2023-08-07T07:17:35;17.20;99.90
31747;DHT22;18319;48.974;8.462;2023-08-07T07:20:02;17.20;99.90
31747;DHT22;18319;48.974;8.462;2023-08-07T07:22:30;17.10;99.90
31747;DHT22;18319;48.974;8.462;2023-08-07T07:24:57;17.00;99.90
31747;DHT22;18319;48.974;8.462;2023-08-07T07:27:23;17.10;99.90
31747;DHT22;18319;48.974;8.462;2023-08-07T07:29:51;17.20;99.90
31747;DHT22;18319;48.974;8.462;2023-08-07T07:32:20;17.20;99.90
31747;DHT22;18319;48.974;8.462;2023-08-07T07:34:47;17.10;99.90
31747;DHT22;18319;48.974;8.462;2023-08-07T07:37:13;17.10;99.90
31747;DHT22;18319;48.974;8.462;2023-08-07T07:39:43;17.30;99.90
31747;DHT22;18319;48.974;8.462;2023-08-07T07:42:10;17.70;99.90
31747;DHT22;18319;48.974;8.462;2023-08-07T07:44:37;18.00;99.90
31747;DHT22;18319;48.974;8.462;2023-08-07T07:47:05;17.70;99.90
31747;DHT22;18319;48.974;8.462;2023-08-07T07:49:32;17.40;99.90
31747;DHT22;18319;48.974;8.462;2023-08-07T07:51:59;17.40;99.90
31747;DHT22;18319;48.974;8.462;2023-08-07T07:54:28;17.00;99.90
31747;DHT22;18319;48.974;8.462;2023-08-07T07:56:56;17.10;99.90
31747;DHT22;18319;48.974;8.462;2023-08-07T07:59:23;17.10;99.90
31747;DHT22;18319;48.974;8.462;2023-08-07T08:01:53;17.00;99.90
31747;DHT22;18319;48.974;8.462;2023-08-07T08:04:20;16.90;99.90
31747;DHT22;18319;48.974;8.462;2023-08-07T08:06:46;17.00;99.90
31747;DHT22;18319;48.974;8.462;2023-08-07T08:09:13;17.20;99.90
31747;DHT22;18319;48.974;8.462;2023-08-07T08:11:41;17.40;99.90
31747;DHT22;18319;48.974;8.462;2023-08-07T08:14:09;17.40;99.90
31747;DHT22;18319;48.974;8.462;2023-08-07T08:16:38;17.70;99.90
31747;DHT22;18319;48.974;8.462;2023-08-07T08:19:05;17.50;99.90
31747;DHT22;18319;48.974;8.462;2023-08-07T08:21:33;17.40;99.90
31747;DHT22;18319;48.974;8.462;2023-08-07T08:24:00;17.30;99.90
31747;DHT22;18319;48.974;8.462;2023-08-07T08:26:27;17.70;99.90
31747;DHT22;18319;48.974;8.462;2023-08-07T08:28:54;18.10;99.90
31747;DHT22;18319;48.974;8.462;2023-08-07T08:31:22;18.80;99.90
31747;DHT22;18319;48.974;8.462;2023-08-07T08:33:49;18.90;99.90
31747;DHT22;18319;48.974;8.462;2023-08-07T08:36:16;19.10;99.90
31747;DHT22;18319;48.974;8.462;2023-08-07T08:38:43;19.00;99.90
31747;DHT22;18319;48.974;8.462;2023-08-07T08:41:11;19.90;99.90
31747;DHT22;18319;48.974;8.462;2023-08-07T08:43:40;20.00;99.90
31747;DHT22;18319;48.974;8.462;2023-08-07T08:46:11;19.70;99.90
31747;DHT22;18319;48.974;8.462;2023-08-07T08:48:44;19.50;99.90
31747;DHT22;18319;48.974;8.462;2023-08-07T08:51:13;19.50;99.90
31747;DHT22;18319;48.974;8.462;2023-08-07T08:53:40;20.10;99.90
31747;DHT22;18319;48.974;8.462;2023-08-07T08:56:07;20.70;99.90
31747;DHT22;18319;48.974;8.462;2023-08-07T08:58:34;20.40;99.90
31747;DHT22;18319;48.974;8.462;2023-08-07T09:01:02;20.30;99.90
31747;DHT22;18319;48.974;8.462;2023-08-07T09:03:28;19.90;99.90
31747;DHT22;18319;48.974;8.462;2023-08-07T09:05:58;20.10;99.90
31747;DHT22;18319;48.974;8.462;2023-08-07T09:08:27;20.00;99.90
31747;DHT22;18319;48.974;8.462;2023-08-07T09:10:55;19.70;99.90
31747;DHT22;18319;48.974;8.462;2023-08-07T09:13:23;19.40;99.90
31747;DHT22;18319;48.974;8.462;2023-08-07T09:15:50;20.00;99.90
31747;DHT22;18319;48.974;8.462;2023-08-07T09:18:18;20.00;99.90
31747;DHT22;18319;48.974;8.462;2023-08-07T09:20:45;19.70;99.90
31747;DHT22;18319;48.974;8.462;2023-08-07T09:23:14;20.00;99.90
31747;DHT22;18319;48.974;8.462;2023-08-07T09:25:44;20.20;99.90
31747;DHT22;18319;48.974;8.462;2023-08-07T09:28:11;20.80;99.90
31747;DHT22;18319;48.974;8.462;2023-08-07T09:30:38;21.20;99.90
31747;DHT22;18319;48.974;8.462;2023-08-07T09:33:04;21.40;99.90
31747;DHT22;18319;48.974;8.462;2023-08-07T09:35:32;21.70;99.90
31747;DHT22;18319;48.974;8.462;2023-08-07T09:38:00;21.70;99.90
31747;DHT22;18319;48.974;8.462;2023-08-07T09:40:29;21.40;99.90
31747;DHT22;18319;48.974;8.462;2023-08-07T09:42:56;21.40;99.90
31747;DHT22;18319;48.974;8.462;2023-08-07T09:45:24;20.70;99.90
31747;DHT22;18319;48.974;8.462;2023-08-07T09:47:58;20.40;99.90
31747;DHT22;18319;48.974;8.462;2023-08-07T09:50:25;20.50;99.90
31747;DHT22;18319;48.974;8.462;2023-08-07T09:52:53;20.80;99.90
31747;DHT22;18319;48.974;8.462;2023-08-07T09:55:21;21.20;99.90
31747;DHT22;18319;48.974;8.462;2023-08-07T09:57:50;21.10;99.90
31747;DHT22;18319;48.974;8.462;2023-08-07T10:00:17;20.70;99.90
31747;DHT22;18319;48.974;8.462;2023-08-07T10:02:46;20.40;99.90
31747;DHT22;18319;48.974;8.462;2023-08-07T10:05:13;20.10;99.90
31747;DHT22;18319;48.974;8.462;2023-08-07T10:07:40;19.70;99.90
31747;DHT22;18319;48.974;8.462;2023-08-07T10:10:08;19.30;99.90
31747;DHT22;18319;48.974;8.462;2023-08-07T10:12:36;19.60;99.90
31747;DHT22;18319;48.974;8.462;2023-08-07T10:15:05;19.20;99.90
31747;DHT22;18319;48.974;8.462;2023-08-07T10:17:33;19.50;99.90
31747;DHT22;18319;48.974;8.462;2023-08-07T10:20:01;19.70;99.90
31747;DHT22;18319;48.974;8.462;2023-08-07T10:22:30;19.80;99.90
31747;DHT22;18319;48.974;8.462;2023-08-07T10:25:00;20.10;99.90
31747;DHT22;18319;48.974;8.462;2023-08-07T10:27:30;20.10;99.90
31747;DHT22;18319;48.974;8.462;2023-08-07T10:29:59;20.60;99.90
31747;DHT22;18319;48.974;8.462;2023-08-07T10:32:28;20.60;99.90
31747;DHT22;18319;48.974;8.462;2023-08-07T10:34:55;20.20;99.90
31747;DHT22;18319;48.974;8.462;2023-08-07T10:37:41;20.40;99.90
31747;DHT22;18319;48.974;8.462;2023-08-07T10:40:09;20.10;99.90
31747;DHT22;18319;48.974;8.462;2023-08-07T10:42:56;19.80;99.90
31747;DHT22;18319;48.974;8.462;2023-08-07T10:45:24;19.70;99.90
31747;DHT22;18319;48.974;8.462;2023-08-07T10:48:02;19.50;99.90
31747;DHT22;18319;48.974;8.462;2023-08-07T10:50:30;19.00;99.90
31747;DHT22;18319;48.974;8.462;2023-08-07T10:53:00;18.90;99.90
31747;DHT22;18319;48.974;8.462;2023-08-07T10:55:30;18.80;99.90
31747;DHT22;18319;48.974;8.462;2023-08-07T10:57:57;18.80;99.90
31747;DHT22;18319;48.974;8.462;2023-08-07T11:00:26;18.70;99.90
31747;DHT22;18319;48.974;8.462;2023-08-07T11:02:53;18.70;99.90
31747;DHT22;18319;48.974;8.462;2023-08-07T11:05:23;18.70;99.90
31747;DHT22;18319;48.974;8.462;2023-08-07T11:07:51;18.30;99.90
31747;DHT22;18319;48.974;8.462;2023-08-07T11:10:20;18.10;99.90
31747;DHT22;18319;48.974;8.462;2023-08-07T11:12:46;17.80;99.90
31747;DHT22;18319;48.974;8.462;2023-08-07T11:15:14;17.60;99.90
31747;DHT22;18319;48.974;8.462;2023-08-07T11:17:41;17.40;99.90
31747;DHT22;18319;48.974;8.462;2023-08-07T11:20:09;17.40;99.90
31747;DHT22;18319;48.974;8.462;2023-08-07T11:22:39;17.30;99.90
31747;DHT22;18319;48.974;8.462;2023-08-07T11:25:08;17.30;99.90
31747;DHT22;18319;48.974;8.462;2023-08-07T11:27:39;17.20;99.90
31747;DHT22;18319;48.974;8.462;2023-08-07T11:30:10;17.00;99.90
31747;DHT22;18319;48.974;8.462;2023-08-07T11:32:37;16.90;99.90
31747;DHT22;18319;48.974;8.462;2023-08-07T11:35:06;16.80;99.90
31747;DHT22;18319;48.974;8.462;2023-08-07T11:37:33;16.70;99.90
31747;DHT22;18319;48.974;8.462;2023-08-07T11:40:03;16.80;99.90
31747;DHT22;18319;48.974;8.462;2023-08-07T11:42:29;16.80;99.90
31747;DHT22;18319;48.974;8.462;2023-08-07T11:44:56;16.90;99.90
31747;DHT22;18319;48.974;8.462;2023-08-07T11:47:23;16.80;99.90
31747;DHT22;18319;48.974;8.462;2023-08-07T11:49:52;16.90;99.90
31747;DHT22;18319;48.974;8.462;2023-08-07T11:52:19;17.00;99.90
31747;DHT22;18319;48.974;8.462;2023-08-07T11:54:47;17.10;99.90
31747;DHT22;18319;48.974;8.462;2023-08-07T11:57:17;17.20;99.90
31747;DHT22;18319;48.974;8.462;2023-08-07T11:59:49;17.00;99.90
31747;DHT22;18319;48.974;8.462;2023-08-07T12:02:16;17.00;99.90
31747;DHT22;18319;48.974;8.462;2023-08-07T12:04:43;17.00;99.90
31747;DHT22;18319;48.974;8.462;2023-08-07T12:07:10;17.10;99.90
31747;DHT22;18319;48.974;8.462;2023-08-07T12:09:39;17.50;99.90
31747;DHT22;18319;48.974;8.462;2023-08-07T12:12:07;17.60;99.90
31747;DHT22;18319;48.974;8.462;2023-08-07T12:14:35;17.60;99.90
31747;DHT22;18319;48.974;8.462;2023-08-07T12:17:02;17.70;99.90
31747;DHT22;18319;48.974;8.462;2023-08-07T12:19:36;17.90;99.90
31747;DHT22;18319;48.974;8.462;2023-08-07T12:22:06;18.30;99.90
31747;DHT22;18319;48.974;8.462;2023-08-07T12:24:35;18.40;99.90
31747;DHT22;18319;48.974;8.462;2023-08-07T12:27:04;18.90;99.90
31747;DHT22;18319;48.974;8.462;2023-08-07T12:29:30;19.20;99.90
31747;DHT22;18319;48.974;8.462;2023-08-07T12:31:59;19.60;99.90
31747;DHT22;18319;48.974;8.462;2023-08-07T12:34:26;19.60;99.90
31747;DHT22;18319;48.974;8.462;2023-08-07T12:36:53;19.90;99.90
31747;DHT22;18319;48.974;8.462;2023-08-07T12:39:20;20.30;99.90
31747;DHT22;18319;48.974;8.462;2023-08-07T12:41:47;20.20;99.90
31747;DHT22;18319;48.974;8.462;2023-08-07T12:44:15;20.40;99.90
31747;DHT22;18319;48.974;8.462;2023-08-07T12:46:42;20.60;99.90
31747;DHT22;18319;48.974;8.462;2023-08-07T12:49:10;20.40;99.90
31747;DHT22;18319;48.974;8.462;2023-08-07T12:51:37;19.80;99.90
31747;DHT22;18319;48.974;8.462;2023-08-07T12:54:04;19.90;99.90
31747;DHT22;18319;48.974;8.462;2023-08-07T12:56:30;20.00;99.90
31747;DHT22;18319;48.974;8.462;2023-08-07T12:58:57;19.90;99.90
31747;DHT22;18319;48.974;8.462;2023-08-07T13:01:24;19.90;99.90
31747;DHT22;18319;48.974;8.462;2023-08-07T13:03:52;20.00;99.90
31747;DHT22;18319;48.974;8.462;2023-08-07T13:06:20;20.20;99.90
31747;DHT22;18319;48.974;8.462;2023-08-07T13:08:47;20.20;99.90
31747;DHT22;18319;48.974;8.462;2023-08-07T13:11:14;20.30;99.90
31747;DHT22;18319;48.974;8.462;2023-08-07T13:13:41;20.20;99.90
31747;DHT22;18319;48.974;8.462;2023-08-07T13:16:07;20.00;99.90
31747;DHT22;18319;48.974;8.462;2023-08-07T13:18:34;19.90;99.90
31747;DHT22;18319;48.974;8.462;2023-08-07T13:21:01;19.90;99.90
31747;DHT22;18319;48.974;8.462;2023-08-07T13:23:29;19.40;99.90
31747;DHT22;18319;48.974;8.462;2023-08-07T13:25:56;19.00;99.90
31747;DHT22;18319;48.974;8.462;2023-08-07T13:28:23;19.20;99.90
31747;DHT22;18319;48.974;8.462;2023-08-07T13:30:50;19.60;99.90
31747;DHT22;18319;48.974;8.462;2023-08-07T13:33:19;20.10;99.90
31747;DHT22;18319;48.974;8.462;2023-08-07T13:35:46;20.60;99.90
31747;DHT22;18319;48.974;8.462;2023-08-07T13:38:13;20.60;99.90
31747;DHT22;18319;48.974;8.462;2023-08-07T13:40:42;20.60;99.90
31747;DHT22;18319;48.974;8.462;2023-08-07T13:43:09;20.40;99.90
31747;DHT22;18319;48.974;8.462;2023-08-07T13:45:37;20.10;99.90
31747;DHT22;18319;48.974;8.462;2023-08-07T13:48:04;20.20;99.90
31747;DHT22;18319;48.974;8.462;2023-08-07T13:50:31;20.10;99.90
31747;DHT22;18319;48.974;8.462;2023-08-07T13:52:58;19.90;99.90
31747;DHT22;18319;48.974;8.462;2023-08-07T13:55:25;19.60;99.90
31747;DHT22;18319;48.974;8.462;2023-08-07T13:57:54;19.30;99.90
31747;DHT22;18319;48.974;8.462;2023-08-07T14:00:21;19.00;99.90
31747;DHT22;18319;48.974;8.462;2023-08-07T14:02:48;18.70;99.90
31747;DHT22;18319;48.974;8.462;2023-08-07T14:05:14;18.40;99.90
31747;DHT22;18319;48.974;8.462;2023-08-07T14:07:41;18.20;99.90
31747;DHT22;18319;48.974;8.462;2023-08-07T14:10:08;18.10;99.90
31747;DHT22;18319;48.974;8.462;2023-08-07T14:12:35;17.90;99.90
31747;DHT22;18319;48.974;8.462;2023-08-07T14:15:03;18.20;99.90
31747;DHT22;18319;48.974;8.462;2023-08-07T14:17:33;18.70;99.90
31747;DHT22;18319;48.974;8.462;2023-08-07T14:20:00;19.00;99.90
31747;DHT22;18319;48.974;8.462;2023-08-07T14:22:30;18.90;99.90
31747;DHT22;18319;48.974;8.462;2023-08-07T14:24:57;18.70;99.90
31747;DHT22;18319;48.974;8.462;2023-08-07T14:27:23;18.60;99.90
31747;DHT22;18319;48.974;8.462;2023-08-07T14:29:50;18.60;99.90
31747;DHT22;18319;48.974;8.462;2023-08-07T14:32:18;18.60;99.90
31747;DHT22;18319;48.974;8.462;2023-08-07T14:34:45;18.50;99.90
31747;DHT22;18319;48.974;8.462;2023-08-07T14:37:13;18.50;99.90
31747;DHT22;18319;48.974;8.462;2023-08-07T14:39:40;18.70;99.90
31747;DHT22;18319;48.974;8.462;2023-08-07T14:42:06;18.80;99.90
31747;DHT22;18319;48.974;8.462;2023-08-07T14:44:33;18.70;99.90
31747;DHT22;18319;48.974;8.462;2023-08-07T14:47:00;18.70;99.90
31747;DHT22;18319;48.974;8.462;2023-08-07T14:49:28;18.80;99.90
31747;DHT22;18319;48.974;8.462;2023-08-07T14:51:55;18.70;99.90
31747;DHT22;18319;48.974;8.462;2023-08-07T14:54:21;18.80;99.90
31747;DHT22;18319;48.974;8.462;2023-08-07T14:56:49;18.90;99.90
31747;DHT22;18319;48.974;8.462;2023-08-07T14:59:15;19.20;99.90
31747;DHT22;18319;48.974;8.462;2023-08-07T15:01:42;19.60;99.90
31747;DHT22;18319;48.974;8.462;2023-08-07T15:04:09;19.80;99.90
31747;DHT22;18319;48.974;8.462;2023-08-07T15:06:37;19.60;99.90
31747;DHT22;18319;48.974;8.462;2023-08-07T15:09:04;19.40;99.90
31747;DHT22;18319;48.974;8.462;2023-08-07T15:11:31;19.10;99.90
31747;DHT22;18319;48.974;8.462;2023-08-07T15:13:58;19.00;99.90
31747;DHT22;18319;48.974;8.462;2023-08-07T15:16:25;19.10;99.90
31747;DHT22;18319;48.974;8.462;2023-08-07T15:18:51;19.30;99.90
31747;DHT22;18319;48.974;8.462;2023-08-07T15:21:18;19.40;99.90
31747;DHT22;18319;48.974;8.462;2023-08-07T15:23:46;19.60;99.90
31747;DHT22;18319;48.974;8.462;2023-08-07T15:26:13;19.60;99.90
31747;DHT22;18319;48.974;8.462;2023-08-07T15:28:40;19.40;99.90
31747;DHT22;18319;48.974;8.462;2023-08-07T15:31:07;19.10;99.90
31747;DHT22;18319;48.974;8.462;2023-08-07T15:33:34;19.00;99.90